createdAt,value
2018-05-13T00:02:01.620Z,18.00
2018-05-13T00:04:28.021Z,18.00
2018-05-13T00:06:55.166Z,17.80
2018-05-13T00:09:21.553Z,17.80
2018-05-13T00:11:48.030Z,17.70
2018-05-13T00:14:15.201Z,17.70
2018-05-13T00:16:42.372Z,17.70
2018-05-13T00:19:08.809Z,17.40
2018-05-13T00:21:35.238Z,17.60
2018-05-13T00:24:01.690Z,17.70
2018-05-13T00:26:28.308Z,17.70
2018-05-13T00:28:54.784Z,17.60
2018-05-13T00:31:21.194Z,17.60
2018-05-13T00:33:47.609Z,17.60
2018-05-13T00:36:14.327Z,17.50
2018-05-13T00:38:40.835Z,17.50
2018-05-13T00:41:07.193Z,17.50
2018-05-13T00:43:34.348Z,17.40
2018-05-13T00:46:01.086Z,17.40
2018-05-13T00:48:27.450Z,17.40
2018-05-13T00:50:53.847Z,17.40
2018-05-13T00:53:21.089Z,17.40
2018-05-13T00:55:48.234Z,17.40
2018-05-13T00:58:16.140Z,17.30
2018-05-13T01:00:42.694Z,17.30
2018-05-13T01:03:09.051Z,17.30
2018-05-13T01:05:35.838Z,17.40
2018-05-13T01:08:02.325Z,17.30
2018-05-13T01:10:28.733Z,17.20
2018-05-13T01:12:55.365Z,17.20
2018-05-13T01:15:21.764Z,17.10
2018-05-13T01:17:48.155Z,17.00
2018-05-13T01:20:14.598Z,17.00
2018-05-13T01:22:40.995Z,17.00
2018-05-13T01:25:07.497Z,16.70
2018-05-13T01:27:33.996Z,17.00
2018-05-13T01:30:00.388Z,16.90
2018-05-13T01:32:26.841Z,17.00
2018-05-13T01:34:54.018Z,16.90
2018-05-13T01:37:20.410Z,16.90
2018-05-13T01:39:46.873Z,17.00
2018-05-13T01:42:13.559Z,17.00
2018-05-13T01:44:39.945Z,17.00
2018-05-13T01:47:07.195Z,17.00
2018-05-13T01:49:34.530Z,17.00
2018-05-13T01:52:01.232Z,17.00
2018-05-13T01:54:27.870Z,17.10
2018-05-13T01:56:54.361Z,17.10
2018-05-13T01:59:20.885Z,17.00
2018-05-13T02:01:47.275Z,17.00
2018-05-13T02:04:14.014Z,17.00
2018-05-13T02:06:40.430Z,17.00
2018-05-13T02:09:07.601Z,16.90
2018-05-13T02:11:34.032Z,16.90
2018-05-13T02:14:00.478Z,16.90
2018-05-13T02:16:26.951Z,16.90
2018-05-13T02:18:54.819Z,16.80
2018-05-13T02:21:21.168Z,16.80
2018-05-13T02:23:48.353Z,16.90
2018-05-13T02:26:14.755Z,16.80
2018-05-13T02:28:41.998Z,16.90
2018-05-13T02:31:09.173Z,16.80
2018-05-13T02:33:35.646Z,16.80
2018-05-13T02:36:02.038Z,16.90
2018-05-13T02:38:28.622Z,16.60
2018-05-13T02:40:55.027Z,16.90
2018-05-13T02:43:21.640Z,16.90
2018-05-13T02:45:48.038Z,16.90
2018-05-13T02:48:15.171Z,16.90
2018-05-13T02:50:43.094Z,16.90
2018-05-13T02:53:09.521Z,16.90
2018-05-13T02:55:37.090Z,16.90
2018-05-13T02:58:03.742Z,16.70
2018-05-13T03:00:30.224Z,16.90
2018-05-13T03:02:56.609Z,16.90
2018-05-13T03:05:23.012Z,16.90
2018-05-13T03:07:50.784Z,16.80
2018-05-13T03:10:17.230Z,16.80
2018-05-13T03:12:43.584Z,16.70
2018-05-13T03:15:10.021Z,16.60
2018-05-13T03:17:36.468Z,16.50
2018-05-13T03:20:03.073Z,16.10
2018-05-13T03:22:29.554Z,16.30
2018-05-13T03:24:57.464Z,16.20
2018-05-13T03:27:23.880Z,16.20
2018-05-13T03:29:50.305Z,16.10
2018-05-13T03:32:17.507Z,16.00
2018-05-13T03:34:44.102Z,15.90
2018-05-13T03:37:11.266Z,15.80
2018-05-13T03:39:37.814Z,15.80
2018-05-13T03:42:04.470Z,15.80
2018-05-13T03:44:30.872Z,15.80
2018-05-13T03:46:57.377Z,15.70
2018-05-13T03:49:24.524Z,15.70
2018-05-13T03:51:51.643Z,15.70
2018-05-13T03:54:18.115Z,15.70
2018-05-13T03:56:45.261Z,15.60
2018-05-13T03:59:12.367Z,15.50
2018-05-13T04:01:38.772Z,15.50
2018-05-13T04:04:05.400Z,15.60
2018-05-13T04:06:31.904Z,15.50
2018-05-13T04:09:16.661Z,15.60
2018-05-13T04:12:02.992Z,15.80
2018-05-13T04:14:48.524Z,15.80
2018-05-13T04:17:15.216Z,15.70
2018-05-13T04:19:41.677Z,15.90
2018-05-13T04:22:08.061Z,16.00
2018-05-13T04:24:35.537Z,16.10
2018-05-13T04:27:02.654Z,16.10
2018-05-13T04:29:29.433Z,16.10
2018-05-13T04:31:55.787Z,16.20
2018-05-13T04:34:22.157Z,16.20
2018-05-13T04:36:49.308Z,16.20
2018-05-13T04:39:15.799Z,16.20
2018-05-13T04:41:42.226Z,16.30
2018-05-13T04:44:08.697Z,16.30
2018-05-13T04:46:35.082Z,16.50
2018-05-13T04:49:01.460Z,16.50
2018-05-13T04:51:27.872Z,16.60
2018-05-13T04:53:54.581Z,16.60
2018-05-13T04:56:21.047Z,16.60
2018-05-13T04:58:47.449Z,16.60
2018-05-13T05:01:13.809Z,16.60
2018-05-13T05:03:40.291Z,16.70
2018-05-13T05:06:07.536Z,16.70
2018-05-13T05:08:33.915Z,16.70
2018-05-13T05:11:00.632Z,16.80
2018-05-13T05:13:27.054Z,16.70
2018-05-13T05:15:54.182Z,16.90
2018-05-13T05:18:20.618Z,16.90
2018-05-13T05:20:47.253Z,16.90
2018-05-13T05:23:13.628Z,16.90
2018-05-13T05:25:40.034Z,17.00
2018-05-13T05:28:07.192Z,17.10
2018-05-13T05:30:34.286Z,17.10
2018-05-13T05:33:00.675Z,17.00
2018-05-13T05:35:27.849Z,17.10
2018-05-13T05:37:54.293Z,17.00
2018-05-13T05:40:20.693Z,17.10
2018-05-13T05:42:47.825Z,17.20
2018-05-13T05:45:14.945Z,17.30
2018-05-13T05:47:41.489Z,17.30
2018-05-13T05:50:07.913Z,17.40
2018-05-13T05:52:34.298Z,17.30
2018-05-13T05:55:00.704Z,17.50
2018-05-13T05:57:27.187Z,17.60
2018-05-13T05:59:53.582Z,17.70
2018-05-13T06:02:20.797Z,18.00
2018-05-13T06:04:47.396Z,17.90
2018-05-13T06:07:15.326Z,18.30
2018-05-13T06:09:41.845Z,18.20
2018-05-13T06:12:08.957Z,18.40
2018-05-13T06:14:35.401Z,18.50
2018-05-13T06:17:02.094Z,18.80
2018-05-13T06:19:28.478Z,18.90
2018-05-13T06:21:54.934Z,19.10
2018-05-13T06:24:21.305Z,19.20
2018-05-13T06:26:47.768Z,19.00
2018-05-13T06:29:14.201Z,18.70
2018-05-13T06:31:40.590Z,18.50
2018-05-13T06:34:07.788Z,18.50
2018-05-13T06:36:34.174Z,18.50
2018-05-13T06:39:01.324Z,18.40
2018-05-13T06:41:28.556Z,18.20
2018-05-13T06:43:55.016Z,18.20
2018-05-13T06:46:22.209Z,18.20
2018-05-13T06:48:48.840Z,18.00
2018-05-13T06:51:15.347Z,18.30
2018-05-13T06:53:41.618Z,18.00
2018-05-13T06:56:08.022Z,18.40
2018-05-13T06:58:34.511Z,18.50
2018-05-13T07:01:00.940Z,18.50
2018-05-13T07:03:27.480Z,18.40
2018-05-13T07:05:53.974Z,18.30
2018-05-13T07:08:20.370Z,18.30
2018-05-13T07:10:46.786Z,18.30
2018-05-13T07:13:13.898Z,18.40
2018-05-13T07:15:40.390Z,18.30
2018-05-13T07:18:06.936Z,18.40
2018-05-13T07:20:33.481Z,18.50
2018-05-13T07:23:00.044Z,18.50
2018-05-13T07:25:26.548Z,18.30
2018-05-13T07:27:52.935Z,18.20
2018-05-13T07:30:19.344Z,18.20
2018-05-13T07:32:45.802Z,18.20
2018-05-13T07:35:13.027Z,18.10
2018-05-13T07:37:39.471Z,18.10
2018-05-13T07:40:05.862Z,18.10
2018-05-13T07:42:32.586Z,18.20
2018-05-13T07:44:59.109Z,18.20
2018-05-13T07:47:26.347Z,18.40
2018-05-13T07:49:53.017Z,18.40
2018-05-13T07:52:19.846Z,18.20
2018-05-13T07:54:47.412Z,18.40
2018-05-13T07:57:13.813Z,18.40
2018-05-13T07:59:40.259Z,18.20
2018-05-13T08:02:07.467Z,18.40
2018-05-13T08:04:34.048Z,18.40
2018-05-13T08:07:01.284Z,18.10
2018-05-13T08:09:27.831Z,18.10
2018-05-13T08:11:54.219Z,18.00
2018-05-13T08:14:20.606Z,18.10
2018-05-13T08:16:47.777Z,18.30
2018-05-13T08:19:14.270Z,18.20
2018-05-13T08:21:40.641Z,18.30
2018-05-13T08:24:07.075Z,18.40
2018-05-13T08:26:33.677Z,18.60
2018-05-13T08:29:00.090Z,18.80
2018-05-13T08:31:26.596Z,17.00
2018-05-13T08:33:53.050Z,18.80
2018-05-13T08:36:19.405Z,18.70
2018-05-13T08:38:47.729Z,18.40
2018-05-13T08:41:14.138Z,18.40
2018-05-13T08:43:41.300Z,18.70
2018-05-13T08:46:07.991Z,18.40
2018-05-13T08:48:34.445Z,18.40
2018-05-13T08:51:01.640Z,18.20
2018-05-13T08:53:28.916Z,18.20
2018-05-13T08:55:55.539Z,18.00
2018-05-13T08:58:22.247Z,18.00
2018-05-13T09:00:49.640Z,18.00
2018-05-13T09:03:16.295Z,16.30
2018-05-13T09:05:42.772Z,18.20
2018-05-13T09:08:10.166Z,18.40
2018-05-13T09:10:36.749Z,18.40
2018-05-13T09:13:04.089Z,18.50
2018-05-13T09:15:31.349Z,18.50
2018-05-13T09:17:58.074Z,18.50
2018-05-13T09:20:25.571Z,18.10
2018-05-13T09:22:52.869Z,17.80
2018-05-13T09:25:19.295Z,17.70
2018-05-13T09:27:46.203Z,17.70
2018-05-13T09:30:12.950Z,17.70
2018-05-13T09:32:39.344Z,17.50
2018-05-13T09:35:05.857Z,17.50
2018-05-13T09:37:32.894Z,17.60
2018-05-13T09:39:59.399Z,17.40
2018-05-13T09:42:25.791Z,17.40
2018-05-13T09:44:53.898Z,17.20
2018-05-13T09:47:20.358Z,17.30
2018-05-13T09:49:46.837Z,17.20
2018-05-13T09:52:14.017Z,17.30
2018-05-13T09:54:40.387Z,17.30
2018-05-13T09:57:06.811Z,17.30
2018-05-13T09:59:33.280Z,17.50
2018-05-13T10:01:59.741Z,17.70
2018-05-13T10:04:26.938Z,17.80
2018-05-13T10:06:53.820Z,17.80
2018-05-13T10:09:21.129Z,17.60
2018-05-13T10:11:47.655Z,17.60
2018-05-13T10:14:14.211Z,17.30
2018-05-13T10:16:40.590Z,17.20
2018-05-13T10:19:08.011Z,17.40
2018-05-13T10:21:34.669Z,17.00
2018-05-13T10:24:02.048Z,17.50
2018-05-13T10:26:28.433Z,17.50
2018-05-13T10:28:55.038Z,17.20
2018-05-13T10:31:21.757Z,17.00
2018-05-13T10:33:48.154Z,16.90
2018-05-13T10:36:14.583Z,16.80
2018-05-13T10:38:41.987Z,16.80
2018-05-13T10:41:08.479Z,16.70
2018-05-13T10:43:34.919Z,16.90
2018-05-13T10:46:02.096Z,16.90
2018-05-13T10:48:28.584Z,16.90
2018-05-13T10:50:55.194Z,16.90
2018-05-13T10:53:21.726Z,16.80
2018-05-13T10:55:48.116Z,16.80
2018-05-13T10:58:15.353Z,16.90
2018-05-13T11:00:42.427Z,16.80
2018-05-13T11:03:09.634Z,16.90
2018-05-13T11:05:36.045Z,16.80
2018-05-13T11:08:02.760Z,16.90
2018-05-13T11:10:29.346Z,16.90
2018-05-13T11:12:55.896Z,16.90
2018-05-13T11:15:23.442Z,17.10
2018-05-13T11:17:51.384Z,17.20
2018-05-13T11:20:17.816Z,17.10
2018-05-13T11:22:44.217Z,17.10
2018-05-13T11:25:11.382Z,17.30
2018-05-13T11:27:38.100Z,17.20
2018-05-13T11:30:04.857Z,17.30
2018-05-13T11:32:31.239Z,17.30
2018-05-13T11:34:57.752Z,17.40
2018-05-13T11:37:24.438Z,17.50
2018-05-13T11:39:51.993Z,17.60
2018-05-13T11:42:18.406Z,17.60
2018-05-13T11:44:45.710Z,17.70
2018-05-13T11:47:12.228Z,17.60
2018-05-13T11:49:39.513Z,17.60
2018-05-13T11:52:06.232Z,17.60
2018-05-13T11:54:32.598Z,17.60
2018-05-13T11:56:59.384Z,17.80
2018-05-13T11:59:26.538Z,17.50
2018-05-13T12:01:53.901Z,17.50
2018-05-13T12:04:21.092Z,17.50
2018-05-13T12:06:47.554Z,17.40
2018-05-13T12:09:13.968Z,17.40
2018-05-13T12:11:40.526Z,17.40
2018-05-13T12:14:07.077Z,17.40
2018-05-13T12:16:34.204Z,17.40
2018-05-13T12:19:01.474Z,17.60
2018-05-13T12:21:27.787Z,17.60
2018-05-13T12:23:55.189Z,17.90
2018-05-13T12:26:21.574Z,16.30
2018-05-13T12:28:48.037Z,18.00
2018-05-13T12:31:14.442Z,18.10
2018-05-13T12:33:40.881Z,18.00
2018-05-13T12:36:07.280Z,17.90
2018-05-13T12:38:33.737Z,18.00
2018-05-13T12:41:00.165Z,17.80
2018-05-13T12:43:26.517Z,17.80
2018-05-13T12:45:53.025Z,18.10
2018-05-13T12:48:19.465Z,18.00
2018-05-13T12:50:45.853Z,18.20
2018-05-13T12:53:12.257Z,18.10
2018-05-13T12:55:39.398Z,18.50
2018-05-13T12:58:05.860Z,18.30
2018-05-13T13:00:32.240Z,18.40
2018-05-13T13:02:58.620Z,18.30
2018-05-13T13:05:25.011Z,18.50
2018-05-13T13:07:51.692Z,18.70
2018-05-13T13:10:18.109Z,18.80
2018-05-13T13:12:45.242Z,19.30
2018-05-13T13:15:11.805Z,19.30
2018-05-13T13:17:45.893Z,19.00
2018-05-13T13:20:13.471Z,18.90
2018-05-13T13:22:40.683Z,18.70
2018-05-13T13:25:07.124Z,18.60
2018-05-13T13:27:33.588Z,18.40
2018-05-13T13:30:01.063Z,18.40
2018-05-13T13:32:27.571Z,18.40
2018-05-13T13:34:54.332Z,18.70
2018-05-13T13:37:21.454Z,18.60
2018-05-13T13:39:47.875Z,18.60
2018-05-13T13:42:14.265Z,18.80
2018-05-13T13:44:40.701Z,18.30
2018-05-13T13:47:07.099Z,18.10
2018-05-13T13:49:34.241Z,18.00
2018-05-13T13:52:01.716Z,18.20
2018-05-13T13:54:28.919Z,18.00
2018-05-13T13:56:55.606Z,18.00
2018-05-13T13:59:21.994Z,18.10
2018-05-13T14:01:49.168Z,18.10
2018-05-13T14:04:16.320Z,18.30
2018-05-13T14:06:43.442Z,18.50
2018-05-13T14:09:09.943Z,18.50
2018-05-13T14:11:36.308Z,18.80
2018-05-13T14:14:02.734Z,18.60
2018-05-13T14:16:29.287Z,18.80
2018-05-13T14:18:55.704Z,19.30
2018-05-13T14:21:22.138Z,18.80
2018-05-13T14:23:48.852Z,18.60
2018-05-13T14:26:15.995Z,18.60
2018-05-13T14:28:42.402Z,18.60
2018-05-13T14:31:09.555Z,18.30
2018-05-13T14:33:36.753Z,18.10
2018-05-13T14:36:03.275Z,18.10
2018-05-13T14:38:30.042Z,17.90
2018-05-13T14:40:56.581Z,17.50
2018-05-13T14:43:22.930Z,17.60
2018-05-13T14:45:49.593Z,17.70
2018-05-13T14:48:16.473Z,17.40
2018-05-13T14:50:43.007Z,17.50
2018-05-13T14:53:09.507Z,17.00
2018-05-13T14:55:35.939Z,17.50
2018-05-13T14:58:02.405Z,16.60
2018-05-13T15:00:29.602Z,17.20
2018-05-13T15:02:56.786Z,17.30
2018-05-13T15:05:23.510Z,17.30
2018-05-13T15:07:50.645Z,17.30
2018-05-13T15:10:18.121Z,17.60
2018-05-13T15:12:44.735Z,17.20
2018-05-13T15:15:11.936Z,17.20
2018-05-13T15:17:38.401Z,17.20
2018-05-13T15:20:04.884Z,17.10
2018-05-13T15:22:33.278Z,17.00
2018-05-13T15:24:59.729Z,16.90
2018-05-13T15:27:26.182Z,16.50
2018-05-13T15:29:52.592Z,16.50
2018-05-13T15:32:26.781Z,16.70
2018-05-13T15:34:53.161Z,14.30
2018-05-13T15:37:19.681Z,16.30
2018-05-13T15:39:46.061Z,16.30
2018-05-13T15:42:13.250Z,15.90
2018-05-13T15:44:39.692Z,15.90
2018-05-13T15:47:06.987Z,15.80
2018-05-13T15:49:34.220Z,15.70
2018-05-13T15:52:01.047Z,15.70
2018-05-13T15:54:27.431Z,15.70
2018-05-13T15:56:53.809Z,15.70
2018-05-13T15:59:20.278Z,15.60
2018-05-13T16:01:47.465Z,15.60
2018-05-13T16:04:13.887Z,15.60
2018-05-13T16:06:40.364Z,15.60
2018-05-13T16:09:06.828Z,15.60
2018-05-13T16:11:34.013Z,15.50
2018-05-13T16:14:00.450Z,15.50
2018-05-13T16:16:26.905Z,15.40
2018-05-13T16:18:53.563Z,15.50
2018-05-13T16:21:20.328Z,13.40
2018-05-13T16:23:47.595Z,15.60
2018-05-13T16:26:14.188Z,15.60
2018-05-13T16:28:40.913Z,15.60
2018-05-13T16:31:07.364Z,15.60
2018-05-13T16:33:34.050Z,15.10
2018-05-13T16:36:00.437Z,15.50
2018-05-13T16:38:26.866Z,15.50
2018-05-13T16:40:53.354Z,15.50
2018-05-13T16:43:23.872Z,15.50
2018-05-13T16:45:51.051Z,15.40
2018-05-13T16:51:03.629Z,15.40
2018-05-13T16:53:42.931Z,15.40
2018-05-13T16:56:09.333Z,15.40
2018-05-13T16:58:40.251Z,15.50
2018-05-13T17:01:07.147Z,15.60
2018-05-13T17:03:40.607Z,15.20
2018-05-13T17:06:07.789Z,15.20
2018-05-13T17:08:34.490Z,15.10
2018-05-13T17:11:00.949Z,15.00
2018-05-13T17:13:27.464Z,15.00
2018-05-13T17:15:54.715Z,15.00
2018-05-13T17:18:21.866Z,15.10
2018-05-13T17:20:48.285Z,15.10
2018-05-13T17:23:16.695Z,15.30
2018-05-13T17:25:43.101Z,15.20
2018-05-13T17:28:09.827Z,15.30
2018-05-13T17:30:36.999Z,16.60
2018-05-13T17:33:03.634Z,15.20
2018-05-13T17:35:30.210Z,15.20
2018-05-13T17:37:57.965Z,15.10
2018-05-13T17:40:24.522Z,15.20
2018-05-13T17:42:51.225Z,15.10
2018-05-13T17:45:17.868Z,15.10
2018-05-13T17:47:44.369Z,15.20
2018-05-13T17:50:10.821Z,15.00
2018-05-13T17:52:37.286Z,15.00
2018-05-13T17:55:04.752Z,15.00
2018-05-13T17:57:31.606Z,13.00
2018-05-13T17:59:59.001Z,14.80
2018-05-13T18:05:00.841Z,14.70
2018-05-13T18:07:28.538Z,14.70
2018-05-13T18:10:00.251Z,14.70
2018-05-13T18:12:26.715Z,14.60
2018-05-13T18:15:01.874Z,14.50
2018-05-13T18:17:28.917Z,14.50
2018-05-13T18:19:55.312Z,14.40
2018-05-13T18:22:21.769Z,14.40
2018-05-13T18:24:49.600Z,14.20
2018-05-13T18:27:16.101Z,14.30
2018-05-13T18:29:42.663Z,14.00
2018-05-13T18:34:50.551Z,14.70
2018-05-13T18:37:16.942Z,14.30
2018-05-13T18:39:44.191Z,14.30
2018-05-13T18:42:10.701Z,14.30
2018-05-13T18:44:37.272Z,14.20
2018-05-13T18:47:03.888Z,14.10
2018-05-13T18:49:30.477Z,14.00
2018-05-13T18:51:57.093Z,14.00
2018-05-13T18:54:25.784Z,13.80
2018-05-13T18:56:54.000Z,13.80
2018-05-13T18:59:21.661Z,13.80
2018-05-13T19:01:49.807Z,13.80
2018-05-13T19:04:16.566Z,13.50
2018-05-13T19:06:44.189Z,13.70
2018-05-13T19:09:11.516Z,13.60
2018-05-13T19:11:38.090Z,13.60
2018-05-13T19:14:04.431Z,13.60
2018-05-13T19:16:30.832Z,13.60
2018-05-13T19:18:57.482Z,13.50
2018-05-13T19:21:24.329Z,13.60
2018-05-13T19:23:51.003Z,13.50
2018-05-13T19:26:17.601Z,13.40
2018-05-13T19:28:44.717Z,13.30
2018-05-13T19:31:11.091Z,13.30
2018-05-13T19:33:37.502Z,13.40
2018-05-13T19:36:03.876Z,13.10
2018-05-13T19:38:30.352Z,13.30
2018-05-13T19:40:56.958Z,13.30
2018-05-13T19:43:23.536Z,13.30
2018-05-13T19:45:49.945Z,13.20
2018-05-13T19:48:17.407Z,13.30
2018-05-13T19:50:44.586Z,13.20
2018-05-13T19:53:12.727Z,13.20
2018-05-13T19:55:39.526Z,13.20
2018-05-13T19:58:05.921Z,13.30
2018-05-13T20:00:33.587Z,13.30
2018-05-13T20:03:01.009Z,13.20
2018-05-13T20:05:27.503Z,13.20
2018-05-13T20:07:54.732Z,13.50
2018-05-13T20:10:21.227Z,12.70
2018-05-13T20:12:47.749Z,12.80
2018-05-13T20:15:14.216Z,13.00
2018-05-13T20:17:41.673Z,13.00
2018-05-13T20:20:08.806Z,13.10
2018-05-13T20:22:53.753Z,13.10
2018-05-13T20:25:21.822Z,13.00
2018-05-13T20:27:48.346Z,12.90
2018-05-13T20:30:15.015Z,12.90
2018-05-13T20:32:41.399Z,12.90
2018-05-13T20:35:07.831Z,13.00
2018-05-13T20:37:35.302Z,13.10
2018-05-13T20:40:04.375Z,13.20
2018-05-13T20:42:33.613Z,13.30
2018-05-13T20:45:01.589Z,13.30
2018-05-13T20:47:30.019Z,13.20
2018-05-13T20:49:57.487Z,13.20
2018-05-13T20:52:25.833Z,13.30
2018-05-13T20:54:52.398Z,13.30
2018-05-13T20:57:21.400Z,13.40
2018-05-13T20:59:47.993Z,13.40
2018-05-13T21:02:14.468Z,13.50
2018-05-13T21:04:40.959Z,13.50
2018-05-13T21:07:07.656Z,13.40
2018-05-13T21:09:34.108Z,11.90
2018-05-13T21:12:00.655Z,13.40
2018-05-13T21:14:27.365Z,13.20
2018-05-13T21:16:53.930Z,13.30
2018-05-13T21:19:20.420Z,13.50
2018-05-13T21:21:46.887Z,13.30
2018-05-13T21:24:13.591Z,13.30
2018-05-13T21:26:40.287Z,13.10
2018-05-13T21:29:06.718Z,13.10
2018-05-13T21:31:33.461Z,13.40
2018-05-13T21:33:59.941Z,12.20
2018-05-13T21:36:26.556Z,13.40
2018-05-13T21:38:54.460Z,13.40
2018-05-13T21:41:20.833Z,13.40
2018-05-13T21:43:47.352Z,13.40
2018-05-13T21:46:13.799Z,13.50
2018-05-13T21:48:40.398Z,13.60
2018-05-13T21:51:06.964Z,13.70
2018-05-13T21:53:33.408Z,13.80
2018-05-13T21:55:59.825Z,13.70
2018-05-13T21:58:26.282Z,13.70
2018-05-13T22:00:53.500Z,13.70
2018-05-13T22:03:20.061Z,13.70
2018-05-13T22:05:46.480Z,13.70
2018-05-13T22:08:12.965Z,13.60
2018-05-13T22:10:39.426Z,13.60
2018-05-13T22:13:05.860Z,13.50
2018-05-13T22:15:32.208Z,13.50
2018-05-13T22:17:58.794Z,13.50
2018-05-13T22:20:25.220Z,13.50
2018-05-13T22:22:52.320Z,13.40
2018-05-13T22:25:18.801Z,13.40
2018-05-13T22:27:45.185Z,11.30
2018-05-13T22:30:13.093Z,13.10
2018-05-13T22:35:13.246Z,13.10
2018-05-13T22:37:40.417Z,13.00
2018-05-13T22:40:06.814Z,12.90
2018-05-13T22:42:34.025Z,13.00
2018-05-13T22:45:00.566Z,12.90
2018-05-13T22:47:27.090Z,13.00
2018-05-13T22:49:53.549Z,12.80
2018-05-13T22:52:20.072Z,13.00
2018-05-13T22:54:47.520Z,13.00
2018-05-13T22:57:14.005Z,13.00
2018-05-13T22:59:41.142Z,13.00
2018-05-13T23:02:08.316Z,12.90
2018-05-13T23:04:34.716Z,12.90
2018-05-13T23:07:02.573Z,12.90
2018-05-13T23:09:29.010Z,12.90
2018-05-13T23:11:55.692Z,12.90
2018-05-13T23:14:22.152Z,12.90
2018-05-13T23:16:49.341Z,12.80
2018-05-13T23:19:15.883Z,12.80
2018-05-13T23:21:44.224Z,12.90
2018-05-13T23:24:10.739Z,12.90
2018-05-13T23:26:37.182Z,13.00
2018-05-13T23:29:03.645Z,13.00
2018-05-13T23:31:30.038Z,13.40
2018-05-13T23:33:56.438Z,13.10
2018-05-13T23:36:23.665Z,13.10
2018-05-13T23:38:50.448Z,13.10
2018-05-13T23:41:16.960Z,13.10
2018-05-13T23:43:43.335Z,12.80
2018-05-13T23:46:09.765Z,13.20
2018-05-13T23:48:36.169Z,13.20
2018-05-13T23:51:03.611Z,13.20
2018-05-13T23:53:30.774Z,13.30
2018-05-13T23:55:57.957Z,13.30
2018-05-13T23:58:24.365Z,13.20
